Time;durP1;ratioP1;P1;durP2;ratioP2;P2;SDS_P1;SDS_P2;PMS_P1;PMS_P2;Temp;Humidity;BMP_temperature;BMP_pressure;BME280_temperature;BME280_humidity;BME280_pressure;Samples;Min_cycle;Max_cycle;Signal;HPM_P1;HPM_P2
2023/02/10 00:01:55;;;;;;;2.40;1.37;;;-1.90;99.90;;;;;;5073114;28;20485;-82
2023/02/10 00:04:21;;;;;;;0.40;0.40;;;-2.00;99.90;;;;;;5073156;28;20452;-82
2023/02/10 00:06:48;;;;;;;0.40;0.40;;;-1.90;99.90;;;;;;5072716;28;20440;-82
2023/02/10 00:09:15;;;;;;;0.83;0.83;;;-1.90;99.90;;;;;;5073093;28;20441;-82
2023/02/10 00:11:57;;;;;;;0.87;0.60;;;-2.00;99.90;;;;;;5073167;28;20434;-82
2023/02/10 00:14:24;;;;;;;7.93;2.40;;;-2.00;99.90;;;;;;5073043;28;20528;-82
2023/02/10 00:16:51;;;;;;;0.30;0.30;;;-2.00;99.90;;;;;;5072931;28;20466;-82
2023/02/10 00:19:20;;;;;;;0.37;0.33;;;-2.00;99.90;;;;;;5073024;28;20464;-82
2023/02/10 00:21:47;;;;;;;1.27;0.80;;;-2.00;99.90;;;;;;5075108;28;20493;-82
2023/02/10 00:24:14;;;;;;;0.57;0.57;;;-2.00;99.90;;;;;;5076917;28;20416;-82
2023/02/10 00:26:40;;;;;;;0.47;0.47;;;-2.00;99.90;;;;;;5076742;28;20496;-82
2023/02/10 00:29:07;;;;;;;0.30;0.30;;;-2.00;99.90;;;;;;5076807;28;20448;-82
2023/02/10 00:31:34;;;;;;;1.00;1.00;;;-2.00;99.90;;;;;;5076756;28;20498;-82
2023/02/10 00:34:00;;;;;;;0.70;0.70;;;-1.90;99.90;;;;;;5077205;28;20424;-82
2023/02/10 00:36:29;;;;;;;0.40;0.40;;;-1.90;99.90;;;;;;5076285;28;20863;-82
2023/02/10 00:38:55;;;;;;;0.30;0.30;;;-1.90;99.90;;;;;;5076627;28;20427;-82
2023/02/10 00:41:24;;;;;;;3.10;0.67;;;-1.90;99.90;;;;;;5076438;28;20463;-82
2023/02/10 00:43:51;;;;;;;0.40;0.40;;;-2.00;99.90;;;;;;5076482;28;20437;-82
2023/02/10 00:46:19;;;;;;;0.30;0.30;;;-1.90;99.90;;;;;;5076369;28;20447;-82
2023/02/10 00:48:47;;;;;;;1.70;1.30;;;-1.90;99.90;;;;;;5076380;28;20454;-82
2023/02/10 00:51:14;;;;;;;0.50;0.50;;;-1.90;99.90;;;;;;5076354;28;20452;-82
2023/02/10 00:53:43;;;;;;;0.60;0.60;;;-1.90;99.90;;;;;;5076332;28;20423;-82
2023/02/10 00:56:10;;;;;;;1.40;0.73;;;-1.90;99.90;;;;;;5076230;28;20440;-82
2023/02/10 00:58:37;;;;;;;2.03;0.70;;;-1.90;99.90;;;;;;5075939;28;20930;-82
2023/02/10 01:01:04;;;;;;;1.80;0.57;;;-1.90;99.90;;;;;;5076133;28;20483;-82
2023/02/10 01:03:31;;;;;;;1.43;0.63;;;-2.00;99.90;;;;;;5076151;28;20460;-82
2023/02/10 01:05:58;;;;;;;0.67;0.67;;;-2.00;99.90;;;;;;5075715;28;20939;-82
2023/02/10 01:08:25;;;;;;;1.23;1.13;;;-2.00;99.90;;;;;;5076035;28;20498;-82
2023/02/10 01:11:00;;;;;;;1.23;1.20;;;-2.00;99.90;;;;;;5076604;28;20441;-82
2023/02/10 01:13:27;;;;;;;0.50;0.50;;;-2.00;99.90;;;;;;5075728;28;20920;-82
2023/02/10 01:15:54;;;;;;;0.70;0.70;;;-2.00;99.90;;;;;;5075576;28;20970;-82
2023/02/10 01:18:20;;;;;;;1.17;1.07;;;-2.00;99.90;;;;;;5075628;28;20432;-82
2023/02/10 01:20:47;;;;;;;0.30;0.30;;;-2.10;99.90;;;;;;5075710;28;20442;-82
2023/02/10 01:23:14;;;;;;;2.20;2.10;;;-2.10;99.90;;;;;;5075423;28;20416;-82
2023/02/10 01:25:40;;;;;;;0.50;0.50;;;-2.10;99.90;;;;;;5075850;28;20437;-82
2023/02/10 01:28:10;;;;;;;0.60;0.60;;;-2.20;99.90;;;;;;5075343;28;20956;-82
2023/02/10 01:30:37;;;;;;;0.30;0.30;;;-2.30;99.90;;;;;;5075655;28;20446;-82
2023/02/10 01:33:04;;;;;;;0.97;0.97;;;-2.30;99.90;;;;;;5074780;28;20448;-82
2023/02/10 01:35:30;;;;;;;1.07;1.07;;;-2.30;99.90;;;;;;5075319;28;20477;-82
2023/02/10 01:37:57;;;;;;;0.30;0.30;;;-2.30;99.90;;;;;;5075531;28;20777;-82
2023/02/10 01:40:26;;;;;;;0.30;0.30;;;-2.20;99.90;;;;;;5075503;28;20775;-82
2023/02/10 01:42:53;;;;;;;0.83;0.77;;;-2.20;99.90;;;;;;5075070;28;20977;-82
2023/02/10 01:45:27;;;;;;;0.30;0.30;;;-2.10;99.90;;;;;;5075286;28;20933;-82
2023/02/10 01:47:56;;;;;;;3.60;0.80;;;-2.10;99.90;;;;;;5075313;28;20468;-82
2023/02/10 01:50:26;;;;;;;0.97;0.67;;;-2.00;99.90;;;;;;5075301;28;20424;-82
2023/02/10 01:52:53;;;;;;;1.43;1.37;;;-2.00;99.90;;;;;;5075263;28;20400;-82
2023/02/10 01:55:24;;;;;;;0.40;0.40;;;-2.10;99.90;;;;;;5075203;28;20420;-82
2023/02/10 01:57:53;;;;;;;0.30;0.30;;;-2.10;99.90;;;;;;5074800;28;20444;-82
2023/02/10 02:00:24;;;;;;;1.67;0.63;;;-2.10;99.90;;;;;;5075100;28;20457;-82
2023/02/10 02:02:51;;;;;;;2.30;1.07;;;-2.20;99.90;;;;;;5074716;28;20472;-82
2023/02/10 02:05:31;;;;;;;0.63;0.63;;;-2.10;99.90;;;;;;5075000;28;20424;-82
2023/02/10 02:08:02;;;;;;;0.40;0.40;;;-2.10;99.90;;;;;;5074702;28;20404;-82
2023/02/10 02:10:43;;;;;;;0.50;0.50;;;-2.20;99.90;;;;;;5075936;28;20420;-82
2023/02/10 02:13:17;;;;;;;0.50;0.50;;;-2.10;99.90;;;;;;5074556;28;20408;-82
2023/02/10 02:15:51;;;;;;;0.60;0.60;;;-2.20;99.90;;;;;;5074793;28;20419;-83
2023/02/10 02:18:25;;;;;;;1.40;0.80;;;-2.20;99.90;;;;;;5074823;28;20416;-82
2023/02/10 02:21:22;;;;;;;0.30;0.30;;;-2.30;99.90;;;;;;5074687;28;20415;-82
2023/02/10 02:24:22;;;;;;;0.30;0.30;;;-2.50;99.90;;;;;;5074636;28;20424;-82
2023/02/10 02:27:06;;;;;;;0.40;0.40;;;-2.50;99.90;;;;;;5074616;28;20449;-83
2023/02/10 02:29:57;;;;;;;0.30;0.30;;;-2.60;99.90;;;;;;5074249;28;20899;-83
2023/02/10 02:32:27;;;;;;;0.63;0.50;;;-2.60;99.90;;;;;;5074556;28;20404;-80
2023/02/10 02:35:00;;;;;;;1.17;0.80;;;-2.70;99.90;;;;;;5074296;28;20461;-79
2023/02/10 02:37:29;;;;;;;4.93;1.13;;;-2.80;99.90;;;;;;5074248;28;20560;-80
2023/02/10 02:39:57;;;;;;;0.30;0.30;;;-2.80;99.90;;;;;;5073994;28;20449;-83
2023/02/10 02:42:26;;;;;;;0.60;0.60;;;-2.80;99.90;;;;;;5075020;28;20509;-81
2023/02/10 02:44:57;;;;;;;0.80;0.80;;;-2.80;99.90;;;;;;5073963;28;20452;-81
2023/02/10 02:47:39;;;;;;;0.80;0.80;;;-2.80;99.90;;;;;;5074107;28;20440;-81
2023/02/10 02:50:18;;;;;;;0.60;0.50;;;-2.70;99.90;;;;;;5074148;28;20447;-80
2023/02/10 02:52:54;;;;;;;0.40;0.40;;;-2.80;99.90;;;;;;5074110;28;20430;-83
2023/02/10 02:55:29;;;;;;;0.30;0.30;;;-2.70;99.90;;;;;;5074039;28;20433;-83
2023/02/10 02:58:01;;;;;;;0.30;0.30;;;-2.80;99.90;;;;;;5073905;28;20461;-83
2023/02/10 03:00:31;;;;;;;7.83;2.50;;;-2.80;99.90;;;;;;5079036;28;20408;-83
2023/02/10 03:03:01;;;;;;;0.47;0.47;;;-2.80;99.90;;;;;;5077590;28;20469;-83
2023/02/10 03:05:31;;;;;;;0.37;0.37;;;-2.70;99.90;;;;;;5074052;28;20485;-83
2023/02/10 03:07:58;;;;;;;0.80;0.60;;;-2.80;99.90;;;;;;5073531;28;20876;-83
2023/02/10 03:10:25;;;;;;;0.30;0.30;;;-2.80;99.90;;;;;;5073730;28;20453;-83
2023/02/10 03:12:51;;;;;;;1.20;0.83;;;-2.80;99.90;;;;;;5073722;28;20450;-83
2023/02/10 03:15:18;;;;;;;0.43;0.43;;;-2.80;99.90;;;;;;5073341;28;20955;-83
2023/02/10 03:17:45;;;;;;;0.30;0.30;;;-2.90;99.90;;;;;;5073578;28;20439;-83
2023/02/10 03:20:13;;;;;;;1.33;1.17;;;-2.90;99.90;;;;;;5073555;28;20432;-83
2023/02/10 03:22:42;;;;;;;0.30;0.30;;;-2.90;99.90;;;;;;5073462;28;20483;-83
2023/02/10 03:25:09;;;;;;;0.60;0.60;;;-2.90;99.90;;;;;;5073548;28;20424;-84
2023/02/10 03:27:35;;;;;;;0.50;0.50;;;-2.90;99.90;;;;;;5073526;28;20444;-83
2023/02/10 03:30:02;;;;;;;0.53;0.53;;;-2.90;99.90;;;;;;5073459;28;20532;-83
2023/02/10 03:32:29;;;;;;;0.53;0.50;;;-2.90;99.90;;;;;;5073180;28;20792;-83
2023/02/10 03:34:55;;;;;;;0.30;0.30;;;-2.90;99.90;;;;;;5073182;28;20441;-83
2023/02/10 03:37:23;;;;;;;0.47;0.47;;;-2.90;99.90;;;;;;5073035;28;20476;-83
2023/02/10 03:39:50;;;;;;;1.80;1.70;;;-2.90;99.90;;;;;;5073402;28;20419;-83
2023/02/10 03:42:17;;;;;;;0.40;0.40;;;-2.90;99.90;;;;;;5072929;28;20452;-83
2023/02/10 03:44:44;;;;;;;0.30;0.30;;;-2.80;99.90;;;;;;5073126;28;20848;-83
2023/02/10 03:47:10;;;;;;;0.80;0.80;;;-2.80;99.90;;;;;;5073235;28;20439;-83
2023/02/10 03:49:37;;;;;;;1.37;1.27;;;-2.70;99.90;;;;;;5073252;28;20867;-83
2023/02/10 03:52:04;;;;;;;0.30;0.30;;;-2.70;99.90;;;;;;5073285;28;20445;-83
2023/02/10 03:54:33;;;;;;;0.50;0.50;;;-2.70;99.90;;;;;;5073336;28;20428;-83
2023/02/10 03:57:00;;;;;;;0.30;0.30;;;-2.70;99.90;;;;;;5073284;28;20892;-83
2023/02/10 03:59:27;;;;;;;0.30;0.30;;;-2.60;99.90;;;;;;5073271;28;20422;-83
2023/02/10 04:01:53;;;;;;;0.43;0.43;;;-2.60;99.90;;;;;;5072812;28;20980;-83
2023/02/10 04:04:20;;;;;;;1.13;1.00;;;-2.60;99.90;;;;;;5073173;28;20432;-83
2023/02/10 04:06:47;;;;;;;0.30;0.30;;;-2.70;99.90;;;;;;5073072;28;20470;-83
2023/02/10 04:09:13;;;;;;;0.70;0.70;;;-2.70;99.90;;;;;;5073093;28;20450;-83
2023/02/10 04:11:41;;;;;;;0.40;0.40;;;-2.70;99.90;;;;;;5073070;28;20424;-83
2023/02/10 04:14:08;;;;;;;1.10;1.03;;;-2.80;99.90;;;;;;5073022;28;20420;-83
2023/02/10 04:16:35;;;;;;;0.30;0.20;;;-2.90;99.90;;;;;;5072634;28;20448;-83
2023/02/10 04:19:02;;;;;;;0.73;0.73;;;-3.00;99.90;;;;;;5073042;28;20448;-83
2023/02/10 04:21:29;;;;;;;1.37;1.13;;;-3.10;99.90;;;;;;5072891;28;20448;-83
2023/02/10 04:23:56;;;;;;;0.60;0.60;;;-3.10;99.90;;;;;;5073181;28;20445;-83
2023/02/10 04:26:23;;;;;;;0.30;0.30;;;-3.10;99.90;;;;;;5072899;28;20476;-83
2023/02/10 04:28:51;;;;;;;1.37;1.27;;;-3.10;99.90;;;;;;5072966;28;20449;-84
2023/02/10 04:31:18;;;;;;;0.60;0.60;;;-3.10;99.90;;;;;;5072904;28;20424;-83
2023/02/10 04:33:45;;;;;;;0.40;0.40;;;-3.10;99.90;;;;;;5072790;28;20420;-83
2023/02/10 04:36:12;;;;;;;0.30;0.30;;;-3.00;99.90;;;;;;5072545;28;20481;-83
2023/02/10 04:38:38;;;;;;;0.40;0.40;;;-2.90;99.90;;;;;;5072807;28;20449;-84
2023/02/10 04:41:05;;;;;;;0.70;0.60;;;-3.00;99.90;;;;;;5072468;28;20445;-83
2023/02/10 04:43:32;;;;;;;0.50;0.50;;;-3.00;99.90;;;;;;5072594;28;20467;-83
2023/02/10 04:46:02;;;;;;;0.30;0.30;;;-3.00;99.90;;;;;;5072675;28;20462;-83
2023/02/10 04:48:29;;;;;;;0.33;0.33;;;-3.00;99.90;;;;;;5072755;28;20548;-84
2023/02/10 04:50:55;;;;;;;0.73;0.40;;;-3.00;99.90;;;;;;5072697;28;20420;-83
2023/02/10 04:53:22;;;;;;;0.73;0.60;;;-3.10;99.90;;;;;;5072680;28;20408;-84
2023/02/10 04:55:49;;;;;;;2.33;2.23;;;-3.10;99.90;;;;;;5072530;28;20449;-83
2023/02/10 04:58:16;;;;;;;0.30;0.30;;;-3.10;99.90;;;;;;5072593;28;20453;-83
2023/02/10 05:00:42;;;;;;;0.40;0.40;;;-3.10;99.90;;;;;;5072559;28;20424;-83
2023/02/10 05:03:10;;;;;;;0.77;0.77;;;-3.10;99.90;;;;;;5072502;28;20492;-84
2023/02/10 05:05:37;;;;;;;0.30;0.30;;;-3.10;99.90;;;;;;5072510;28;20809;-84
2023/02/10 05:08:04;;;;;;;0.30;0.30;;;-3.20;99.90;;;;;;5073535;28;20424;-83
2023/02/10 05:10:30;;;;;;;2.10;0.73;;;-3.20;99.90;;;;;;5076393;28;20454;-84
2023/02/10 05:12:57;;;;;;;1.87;1.70;;;-3.30;99.90;;;;;;5075806;28;20427;-84
2023/02/10 05:15:24;;;;;;;7.00;2.10;;;-3.30;99.90;;;;;;5076090;28;20446;-84
2023/02/10 05:17:51;;;;;;;0.60;0.60;;;-3.30;99.90;;;;;;5075926;28;20448;-83
2023/02/10 05:20:19;;;;;;;0.40;0.40;;;-3.30;99.90;;;;;;5076034;28;20449;-84
2023/02/10 05:22:45;;;;;;;1.37;1.27;;;-3.30;99.90;;;;;;5075958;28;20463;-84
2023/02/10 05:25:12;;;;;;;0.87;0.87;;;-3.40;99.90;;;;;;5076145;28;20420;-83
2023/02/10 05:27:39;;;;;;;0.50;0.50;;;-3.40;99.90;;;;;;5076084;28;20473;-84
2023/02/10 05:30:09;;;;;;;0.70;0.70;;;-3.40;99.90;;;;;;5075604;28;20922;-84
2023/02/10 05:32:35;;;;;;;0.47;0.47;;;-3.40;99.90;;;;;;5075488;28;20886;-83
2023/02/10 05:35:02;;;;;;;0.60;0.60;;;-3.40;99.90;;;;;;5075508;28;20464;-84
2023/02/10 05:37:30;;;;;;;0.50;0.50;;;-3.30;99.90;;;;;;5075353;28;20956;-84
2023/02/10 05:39:57;;;;;;;1.03;0.80;;;-3.30;99.90;;;;;;5075662;28;20446;-84
2023/02/10 05:42:24;;;;;;;0.30;0.30;;;-3.40;99.90;;;;;;5075514;28;20484;-83
2023/02/10 05:44:51;;;;;;;0.40;0.40;;;-3.40;99.90;;;;;;5075592;28;20457;-84
2023/02/10 05:47:18;;;;;;;0.73;0.73;;;-3.40;99.90;;;;;;5075323;28;20473;-84
2023/02/10 05:49:45;;;;;;;0.40;0.40;;;-3.40;99.90;;;;;;5075387;28;20435;-84
2023/02/10 05:52:12;;;;;;;0.40;0.40;;;-3.40;99.90;;;;;;5075371;28;20431;-84
2023/02/10 05:54:40;;;;;;;0.90;0.90;;;-3.40;99.90;;;;;;5075252;28;20452;-84
2023/02/10 05:57:07;;;;;;;0.30;0.30;;;-3.40;99.90;;;;;;5075305;28;20497;-84
2023/02/10 05:59:34;;;;;;;0.40;0.40;;;-3.40;99.90;;;;;;5075218;28;20424;-84
2023/02/10 06:02:01;;;;;;;0.60;0.60;;;-3.40;99.90;;;;;;5075262;28;20448;-84
2023/02/10 06:04:28;;;;;;;0.30;0.30;;;-3.50;99.90;;;;;;5075102;28;20427;-84
2023/02/10 06:06:55;;;;;;;0.40;0.30;;;-3.50;99.90;;;;;;5076886;28;20459;-83
2023/02/10 06:09:22;;;;;;;0.40;0.40;;;-3.50;99.90;;;;;;5083073;28;20420;-81
2023/02/10 06:11:50;;;;;;;0.30;0.30;;;-3.40;99.90;;;;;;5075784;28;20498;-81
2023/02/10 06:14:17;;;;;;;0.40;0.40;;;-3.50;99.90;;;;;;5074973;28;20420;-81
2023/02/10 06:16:44;;;;;;;0.30;0.30;;;-3.40;99.90;;;;;;5074740;28;20477;-83
2023/02/10 06:19:10;;;;;;;0.30;0.20;;;-3.40;99.90;;;;;;5074681;28;20844;-80
2023/02/10 06:21:37;;;;;;;1.53;1.53;;;-3.40;99.90;;;;;;5074846;28;20449;-80
2023/02/10 06:24:04;;;;;;;0.30;0.30;;;-3.40;99.90;;;;;;5074749;28;20464;-80
2023/02/10 06:26:31;;;;;;;0.87;0.87;;;-3.40;99.90;;;;;;5074651;28;20841;-79
2023/02/10 06:28:59;;;;;;;0.30;0.30;;;-3.40;99.90;;;;;;5074648;28;20450;-79
2023/02/10 06:31:25;;;;;;;0.60;0.60;;;-3.40;99.90;;;;;;5074287;28;20445;-79
2023/02/10 06:33:52;;;;;;;1.47;0.70;;;-3.40;99.90;;;;;;5074477;28;20430;-79
2023/02/10 06:36:19;;;;;;;0.30;0.30;;;-3.40;99.90;;;;;;5073853;28;20489;-79
2023/02/10 06:38:47;;;;;;;0.37;0.37;;;-3.40;99.90;;;;;;5074449;28;20464;-80
2023/02/10 06:41:15;;;;;;;0.50;0.50;;;-3.40;99.90;;;;;;5074336;28;20409;-79
2023/02/10 06:43:41;;;;;;;0.30;0.30;;;-3.40;99.90;;;;;;5074216;28;20477;-79
2023/02/10 06:46:10;;;;;;;0.40;0.40;;;-3.40;99.90;;;;;;5074141;28;20450;-79
2023/02/10 06:48:37;;;;;;;0.80;0.80;;;-3.40;99.90;;;;;;5074258;28;20424;-79
2023/02/10 06:51:04;;;;;;;0.30;0.30;;;-3.30;99.90;;;;;;5074106;28;20428;-79
2023/02/10 06:53:31;;;;;;;0.53;0.53;;;-3.30;99.90;;;;;;5074112;28;20408;-79
2023/02/10 06:55:57;;;;;;;0.30;0.30;;;-3.30;99.90;;;;;;5074035;28;20469;-79
2023/02/10 06:58:24;;;;;;;1.27;1.13;;;-3.30;99.90;;;;;;5073951;28;20453;-80
2023/02/10 07:00:51;;;;;;;0.60;0.60;;;-3.30;99.90;;;;;;5073625;28;20416;-79
2023/02/10 07:03:19;;;;;;;0.30;0.30;;;-3.40;99.90;;;;;;5073527;28;21012;-79
2023/02/10 07:05:46;;;;;;;0.80;0.80;;;-3.30;99.90;;;;;;5073745;28;20458;-79
2023/02/10 07:08:12;;;;;;;0.67;0.67;;;-3.30;99.90;;;;;;5073822;28;20453;-79
2023/02/10 07:10:40;;;;;;;0.30;0.30;;;-3.30;99.90;;;;;;5073733;28;20424;-80
2023/02/10 07:13:07;;;;;;;0.63;0.47;;;-3.30;99.90;;;;;;5073746;28;20449;-79
2023/02/10 07:15:33;;;;;;;1.00;1.00;;;-3.30;99.90;;;;;;5073368;28;20929;-79
2023/02/10 07:18:00;;;;;;;0.33;0.33;;;-3.30;99.90;;;;;;5073662;28;20445;-79
2023/02/10 07:20:28;;;;;;;1.63;0.50;;;-3.30;99.90;;;;;;5073576;28;20446;-79
2023/02/10 07:22:55;;;;;;;0.30;0.30;;;-3.30;99.90;;;;;;5073482;28;20483;-79
2023/02/10 07:25:22;;;;;;;0.47;0.47;;;-3.30;99.90;;;;;;5073572;28;20416;-79
2023/02/10 07:27:48;;;;;;;0.70;0.70;;;-3.30;99.90;;;;;;5073440;28;20473;-79
2023/02/10 07:30:15;;;;;;;0.30;0.30;;;-3.30;99.90;;;;;;5072682;28;20817;-79
2023/02/10 07:32:44;;;;;;;0.30;0.30;;;-3.20;99.90;;;;;;5073316;28;20456;-79
2023/02/10 07:35:11;;;;;;;4.20;0.70;;;-3.10;99.90;;;;;;5072907;28;20943;-79
2023/02/10 07:37:40;;;;;;;0.90;0.90;;;-3.10;99.90;;;;;;5073388;28;20462;-79
2023/02/10 07:40:07;;;;;;;0.37;0.33;;;-2.90;99.90;;;;;;5073391;28;20420;-79
2023/02/10 07:42:34;;;;;;;0.97;0.97;;;-2.90;99.90;;;;;;5073354;28;20449;-79
2023/02/10 07:45:01;;;;;;;0.37;0.37;;;-2.80;99.90;;;;;;5074031;28;20425;-79
2023/02/10 07:47:28;;;;;;;0.93;0.60;;;-2.70;99.90;;;;;;5072904;28;20902;-79
2023/02/10 07:49:54;;;;;;;0.40;0.40;;;-2.60;99.90;;;;;;5073249;28;20427;-79
2023/02/10 07:52:22;;;;;;;0.40;0.40;;;-2.50;99.90;;;;;;5072974;28;20424;-79
2023/02/10 07:54:50;;;;;;;0.60;0.60;;;-2.40;99.90;;;;;;5073276;28;20423;-79
2023/02/10 07:57:17;;;;;;;0.30;0.20;;;-2.30;99.90;;;;;;5073187;28;20464;-79
2023/02/10 07:59:44;;;;;;;0.63;0.63;;;-2.10;99.90;;;;;;5073205;28;20853;-79
2023/02/10 08:02:11;;;;;;;0.30;0.30;;;-2.00;99.90;;;;;;5073133;28;20453;-79
2023/02/10 08:04:38;;;;;;;0.40;0.40;;;-1.90;99.90;;;;;;5072988;28;20493;-79
2023/02/10 08:07:05;;;;;;;0.40;0.40;;;-1.90;99.90;;;;;;5072758;28;20464;-79
2023/02/10 08:09:31;;;;;;;1.10;1.10;;;-1.70;99.90;;;;;;5073072;28;20450;-78
2023/02/10 08:11:59;;;;;;;0.50;0.50;;;-1.70;99.90;;;;;;5072843;28;20908;-78
2023/02/10 08:14:26;;;;;;;0.73;0.73;;;-1.70;99.90;;;;;;5073015;28;20442;-78
2023/02/10 08:16:53;;;;;;;0.50;0.43;;;-1.60;99.90;;;;;;5073039;28;20447;-78
2023/02/10 08:19:20;;;;;;;0.40;0.40;;;-1.50;99.90;;;;;;5072711;28;20804;-78
2023/02/10 08:21:46;;;;;;;0.90;0.90;;;-1.50;99.90;;;;;;5072701;28;20428;-78
2023/02/10 08:24:13;;;;;;;1.03;1.03;;;-1.50;99.90;;;;;;5072861;28;20481;-78
2023/02/10 08:26:41;;;;;;;0.80;0.63;;;-1.50;99.90;;;;;;5072813;28;20447;-78
2023/02/10 08:29:09;;;;;;;9.63;0.83;;;-1.40;99.90;;;;;;5073447;28;20786;-78
2023/02/10 08:31:36;;;;;;;0.30;0.30;;;-1.40;99.90;;;;;;5072702;28;20911;-78
2023/02/10 08:34:03;;;;;;;1.10;1.10;;;-1.30;99.90;;;;;;5072793;28;20445;-78
2023/02/10 08:36:30;;;;;;;0.30;0.30;;;-1.20;99.90;;;;;;5072399;28;20482;-78
2023/02/10 08:38:58;;;;;;;2.00;1.43;;;-1.10;99.90;;;;;;5072697;28;20834;-78
2023/02/10 08:41:25;;;;;;;1.03;0.63;;;-1.10;99.90;;;;;;5072379;28;20507;-79
2023/02/10 08:43:52;;;;;;;0.60;0.60;;;-1.10;99.90;;;;;;5076390;28;20527;-78
2023/02/10 08:46:20;;;;;;;0.40;0.40;;;-1.00;99.90;;;;;;5076752;28;20480;-87
2023/02/10 08:48:47;;;;;;;22.63;2.47;;;-0.90;99.90;;;;;;5076463;28;20431;-78
2023/02/10 08:51:15;;;;;;;0.40;0.40;;;-0.80;99.90;;;;;;5076645;28;20441;-78
2023/02/10 08:53:42;;;;;;;1.13;0.77;;;-0.60;99.90;;;;;;5076447;28;20448;-78
2023/02/10 08:56:12;;;;;;;3.47;0.70;;;-0.30;99.90;;;;;;5076008;28;20477;-82
2023/02/10 08:58:40;;;;;;;1.17;1.07;;;-0.10;99.90;;;;;;5076308;28;20444;-78
2023/02/10 09:01:10;;;;;;;1.50;1.40;;;0.20;99.90;;;;;;5076271;28;20506;-78
2023/02/10 09:03:38;;;;;;;0.50;0.50;;;0.60;99.90;;;;;;5076225;28;20440;-78
2023/02/10 09:06:05;;;;;;;2.70;0.70;;;1.10;99.90;;;;;;5076147;28;20465;-77
2023/02/10 09:08:32;;;;;;;0.90;0.73;;;1.80;99.90;;;;;;5076347;28;20453;-79
2023/02/10 09:10:58;;;;;;;6.33;2.40;;;2.60;99.90;;;;;;5076287;28;20495;-79
2023/02/10 09:13:25;;;;;;;0.60;0.60;;;3.50;99.90;;;;;;5076042;28;20456;-79
2023/02/10 09:15:52;;;;;;;1.33;1.30;;;4.50;99.90;;;;;;5075927;28;20469;-79
2023/02/10 09:18:19;;;;;;;2.73;1.37;;;5.60;99.90;;;;;;5076161;28;20437;-79
2023/02/10 09:20:47;;;;;;;0.97;0.97;;;6.80;99.90;;;;;;5075893;28;20445;-79
2023/02/10 09:23:13;;;;;;;7.37;1.60;;;7.90;99.90;;;;;;5075800;28;20454;-79
2023/02/10 09:25:40;;;;;;;0.73;0.60;;;8.60;99.90;;;;;;5075728;28;20434;-79
2023/02/10 09:28:08;;;;;;;2.53;1.37;;;9.50;99.90;;;;;;5075438;28;20445;-79
2023/02/10 09:30:35;;;;;;;2.97;1.40;;;10.30;96.30;;;;;;5075715;28;20457;-79
2023/02/10 09:33:02;;;;;;;4.40;2.00;;;11.20;93.70;;;;;;5075716;28;20452;-79
2023/02/10 09:35:28;;;;;;;3.80;2.30;;;12.40;88.40;;;;;;5075136;28;20842;-79
2023/02/10 09:37:56;;;;;;;4.10;2.80;;;13.50;79.70;;;;;;5075506;28;20465;-79
2023/02/10 09:40:27;;;;;;;6.67;2.37;;;14.50;75.20;;;;;;5075763;28;20434;-79
2023/02/10 09:43:07;;;;;;;10.63;3.40;;;14.80;68.60;;;;;;5075451;28;20438;-79
2023/02/10 09:45:39;;;;;;;7.43;3.77;;;15.50;65.80;;;;;;5075377;28;20811;-79
2023/02/10 09:48:18;;;;;;;7.80;4.47;;;15.70;63.00;;;;;;5075472;28;20521;-80
2023/02/10 09:50:54;;;;;;;5.53;3.53;;;16.00;58.00;;;;;;5075442;28;20441;-80
2023/02/10 09:53:27;;;;;;;9.40;4.57;;;16.20;58.80;;;;;;5074752;28;20443;-79
2023/02/10 09:55:57;;;;;;;7.90;4.70;;;16.30;56.40;;;;;;5075181;28;20508;-79
2023/02/10 09:58:31;;;;;;;7.40;3.93;;;16.50;57.00;;;;;;5075224;28;20530;-79
2023/02/10 10:01:02;;;;;;;6.93;3.50;;;16.80;56.20;;;;;;5075181;28;20467;-79
2023/02/10 10:03:39;;;;;;;8.10;3.97;;;16.80;54.10;;;;;;5075948;28;20437;-78
2023/02/10 10:06:15;;;;;;;13.00;4.90;;;16.30;53.70;;;;;;5074706;28;20484;-78
2023/02/10 10:08:48;;;;;;;15.47;5.20;;;15.50;54.30;;;;;;5075540;28;20469;-78
2023/02/10 10:11:27;;;;;;;9.53;5.00;;;14.90;54.40;;;;;;5074982;28;20434;-78
2023/02/10 10:13:55;;;;;;;8.83;4.60;;;13.90;56.20;;;;;;5074508;28;20429;-78
2023/02/10 10:16:37;;;;;;;11.57;4.30;;;14.20;57.40;;;;;;5074422;28;20465;-80
2023/02/10 10:19:12;;;;;;;6.40;4.13;;;14.40;55.40;;;;;;5074840;28;20445;-84
2023/02/10 10:21:47;;;;;;;9.00;4.17;;;15.20;56.60;;;;;;5074847;28;20483;-79
2023/02/10 10:24:27;;;;;;;7.13;3.77;;;15.70;54.80;;;;;;5074312;28;20472;-79
2023/02/10 10:27:04;;;;;;;8.17;3.17;;;16.20;53.50;;;;;;5075022;28;20461;-80
2023/02/10 10:29:43;;;;;;;9.53;2.90;;;16.50;52.40;;;;;;5074582;28;20441;-79
2023/02/10 10:32:15;;;;;;;6.03;3.30;;;16.50;52.40;;;;;;5074605;28;20443;-79
2023/02/10 10:34:50;;;;;;;7.50;4.13;;;16.10;52.30;;;;;;5074249;28;20430;-79
2023/02/10 10:37:20;;;;;;;8.57;3.20;;;15.50;52.30;;;;;;5074075;28;20526;-79
2023/02/10 10:39:50;;;;;;;15.70;3.53;;;14.90;52.60;;;;;;5074632;28;20453;-79
2023/02/10 10:42:23;;;;;;;12.03;4.10;;;14.10;52.30;;;;;;5074287;28;20437;-80
2023/02/10 10:44:53;;;;;;;8.03;3.43;;;13.30;52.40;;;;;;5074099;28;20512;-80
2023/02/10 10:47:23;;;;;;;6.63;4.00;;;12.60;52.70;;;;;;5074091;28;20910;-79
2023/02/10 10:49:50;;;;;;;5.17;3.20;;;12.30;54.00;;;;;;5074118;28;20440;-79
2023/02/10 10:52:28;;;;;;;8.70;3.00;;;11.80;54.80;;;;;;5074548;28;20453;-79
2023/02/10 10:54:56;;;;;;;4.67;3.43;;;11.20;55.10;;;;;;5074011;28;20487;-80
2023/02/10 10:57:24;;;;;;;2.10;1.47;;;10.60;56.30;;;;;;5073669;28;20465;-79
2023/02/10 10:59:55;;;;;;;6.33;3.23;;;10.20;56.90;;;;;;5073832;28;20812;-79
2023/02/10 11:02:23;;;;;;;8.53;1.87;;;9.60;58.00;;;;;;5073952;28;20434;-80
2023/02/10 11:05:01;;;;;;;3.53;2.93;;;9.20;57.70;;;;;;5073644;28;20516;-79
2023/02/10 11:07:32;;;;;;;2.87;1.53;;;8.70;59.40;;;;;;5073354;28;20472;-81
2023/02/10 11:10:00;;;;;;;2.30;1.57;;;8.30;61.30;;;;;;5073519;28;20402;-80
2023/02/10 11:12:32;;;;;;;4.60;2.53;;;8.10;61.90;;;;;;5073710;28;20445;-80
2023/02/10 11:15:00;;;;;;;5.00;2.67;;;8.20;61.80;;;;;;5073661;28;20426;-79
2023/02/10 11:17:31;;;;;;;7.27;2.67;;;7.90;63.20;;;;;;5073540;28;20477;-80
2023/02/10 11:20:01;;;;;;;3.23;1.80;;;7.70;64.40;;;;;;5073653;28;20438;-80
2023/02/10 11:22:28;;;;;;;5.80;2.70;;;7.60;65.20;;;;;;5073640;28;20433;-80
2023/02/10 11:24:58;;;;;;;5.83;1.83;;;7.40;65.90;;;;;;5073183;28;21014;-80
2023/02/10 11:27:26;;;;;;;2.23;1.50;;;7.10;66.00;;;;;;5073224;28;20466;-80
2023/02/10 11:29:55;;;;;;;5.03;1.77;;;7.00;66.40;;;;;;5073545;28;20425;-80
2023/02/10 11:32:24;;;;;;;4.20;1.37;;;7.00;65.80;;;;;;5073448;28;20457;-80
2023/02/10 11:34:54;;;;;;;2.87;1.97;;;6.90;66.50;;;;;;5073518;28;20815;-80
2023/02/10 11:37:25;;;;;;;6.43;2.23;;;6.90;67.40;;;;;;5073412;28;20468;-80
2023/02/10 11:39:54;;;;;;;11.07;2.23;;;6.70;66.60;;;;;;5073460;28;20425;-80
2023/02/10 11:42:22;;;;;;;2.50;1.10;;;6.60;67.20;;;;;;5073255;28;20480;-80
2023/02/10 11:44:57;;;;;;;1.00;0.90;;;6.60;67.50;;;;;;5072886;28;20488;-80
2023/02/10 11:47:26;;;;;;;4.57;1.30;;;6.50;67.60;;;;;;5074966;28;20480;-80
2023/02/10 11:49:53;;;;;;;6.30;1.23;;;6.50;67.80;;;;;;5072932;28;20441;-80
2023/02/10 11:52:22;;;;;;;4.83;3.07;;;6.40;66.60;;;;;;5073212;28;20449;-80
2023/02/10 11:54:50;;;;;;;2.93;2.70;;;6.40;67.80;;;;;;5072911;28;20476;-80
2023/02/10 12:00:20;;;;;;;2.93;2.37;;;6.50;64.30;;;;;;5073003;28;20406;-80
2023/02/10 12:03:13;;;;;;;2.60;1.10;;;6.40;63.40;;;;;;5073259;28;20804;-80
2023/02/10 12:05:47;;;;;;;1.97;0.80;;;6.30;64.20;;;;;;5067877;28;21077;-80
2023/02/10 12:08:25;;;;;;;2.70;1.40;;;6.30;64.80;;;;;;5073074;28;20433;-80
2023/02/10 12:10:58;;;;;;;0.50;0.50;;;6.20;65.80;;;;;;5073024;28;20800;-81
2023/02/10 12:13:37;;;;;;;2.53;1.17;;;6.10;65.10;;;;;;5072939;28;20532;-79
2023/02/10 12:16:16;;;;;;;1.97;1.30;;;6.00;66.00;;;;;;5072907;28;20473;-80
2023/02/10 12:18:54;;;;;;;1.80;1.10;;;5.80;64.90;;;;;;5076859;28;20805;-80
2023/02/10 12:21:48;;;;;;;2.50;0.97;;;5.70;64.70;;;;;;5077029;28;20425;-80
2023/02/10 12:24:39;;;;;;;1.57;1.00;;;5.70;65.50;;;;;;5076906;28;20440;-80
2023/02/10 12:27:14;;;;;;;2.10;0.50;;;5.70;64.80;;;;;;5076829;28;20461;-80
2023/02/10 12:29:53;;;;;;;4.67;1.30;;;5.70;64.50;;;;;;5076810;28;20440;-80
2023/02/10 12:32:32;;;;;;;1.97;1.87;;;5.60;64.40;;;;;;5076458;28;20438;-80
2023/02/10 12:35:19;;;;;;;3.30;0.90;;;5.40;64.90;;;;;;5076565;28;20430;-80
2023/02/10 12:37:56;;;;;;;0.70;0.70;;;5.30;66.30;;;;;;5076156;28;20480;-79
2023/02/10 12:40:44;;;;;;;3.03;1.53;;;5.20;66.30;;;;;;5076603;28;20425;-79
2023/02/10 12:43:31;;;;;;;1.33;1.33;;;5.20;65.10;;;;;;5073757;28;20449;-79
2023/02/10 12:46:06;;;;;;;1.20;0.50;;;5.10;65.10;;;;;;5076317;28;20485;-80
2023/02/10 12:48:42;;;;;;;0.90;0.90;;;5.10;67.10;;;;;;5076484;28;20461;-80
2023/02/10 12:51:26;;;;;;;5.20;1.20;;;5.00;66.20;;;;;;5076371;28;20487;-80
2023/02/10 12:53:58;;;;;;;1.40;0.80;;;5.00;65.80;;;;;;5076414;28;20437;-80
2023/02/10 12:56:30;;;;;;;3.67;1.53;;;4.90;66.30;;;;;;5076237;28;20465;-80
2023/02/10 12:59:03;;;;;;;3.03;1.17;;;5.00;66.70;;;;;;5076353;28;20437;-80
2023/02/10 13:01:34;;;;;;;0.60;0.50;;;4.90;66.60;;;;;;5076228;28;20433;-80
2023/02/10 13:04:09;;;;;;;1.30;0.90;;;5.00;65.90;;;;;;5076209;28;20503;-80